sensor_id;sensor_type;location;lat;lon;timestamp;P1;durP1;ratioP1;P2;durP2;ratioP2
12072;SDS011;6098;49.004;8.372;2022-08-18T00:03:14;5.07;;;4.56;;
12072;SDS011;6098;49.004;8.372;2022-08-18T00:19:30;5.06;;;4.56;;
12072;SDS011;6098;49.004;8.372;2022-08-18T00:35:47;5.80;;;4.96;;
12072;SDS011;6098;49.004;8.372;2022-08-18T00:52:04;5.10;;;4.70;;
12072;SDS011;6098;49.004;8.372;2022-08-18T01:08:21;5.62;;;5.05;;
12072;SDS011;6098;49.004;8.372;2022-08-18T01:24:39;6.32;;;5.24;;
12072;SDS011;6098;49.004;8.372;2022-08-18T01:41:15;6.60;;;5.90;;
12072;SDS011;6098;49.004;8.372;2022-08-18T01:57:32;6.03;;;5.26;;
12072;SDS011;6098;49.004;8.372;2022-08-18T02:13:50;6.46;;;5.86;;
12072;SDS011;6098;49.004;8.372;2022-08-18T02:30:08;7.22;;;6.53;;
12072;SDS011;6098;49.004;8.372;2022-08-18T02:46:23;6.73;;;6.02;;
12072;SDS011;6098;49.004;8.372;2022-08-18T03:02:37;7.25;;;6.56;;
12072;SDS011;6098;49.004;8.372;2022-08-18T03:18:56;7.69;;;6.89;;
12072;SDS011;6098;49.004;8.372;2022-08-18T03:35:12;8.36;;;7.46;;
12072;SDS011;6098;49.004;8.372;2022-08-18T03:51:31;7.81;;;7.07;;
12072;SDS011;6098;49.004;8.372;2022-08-18T04:07:43;10.03;;;7.77;;
12072;SDS011;6098;49.004;8.372;2022-08-18T04:23:56;8.74;;;7.49;;
12072;SDS011;6098;49.004;8.372;2022-08-18T04:40:10;8.46;;;6.76;;
12072;SDS011;6098;49.004;8.372;2022-08-18T04:56:27;7.76;;;7.03;;
12072;SDS011;6098;49.004;8.372;2022-08-18T05:12:41;7.19;;;6.49;;
12072;SDS011;6098;49.004;8.372;2022-08-18T05:28:59;7.43;;;6.68;;
12072;SDS011;6098;49.004;8.372;2022-08-18T05:45:18;7.54;;;6.79;;
12072;SDS011;6098;49.004;8.372;2022-08-18T06:01:39;8.05;;;6.91;;
12072;SDS011;6098;49.004;8.372;2022-08-18T06:51:07;7.43;;;6.69;;
12072;SDS011;6098;49.004;8.372;2022-08-18T07:07:13;7.38;;;6.68;;
12072;SDS011;6098;49.004;8.372;2022-08-18T07:23:36;7.43;;;6.71;;
12072;SDS011;6098;49.004;8.372;2022-08-18T07:39:54;7.62;;;6.89;;
12072;SDS011;6098;49.004;8.372;2022-08-18T07:56:15;7.89;;;7.07;;
12072;SDS011;6098;49.004;8.372;2022-08-18T08:45:38;7.79;;;6.89;;
12072;SDS011;6098;49.004;8.372;2022-08-18T09:01:55;8.66;;;7.76;;
12072;SDS011;6098;49.004;8.372;2022-08-18T09:51:31;11.61;;;10.43;;
12072;SDS011;6098;49.004;8.372;2022-08-18T10:07:38;13.31;;;11.91;;
12072;SDS011;6098;49.004;8.372;2022-08-18T10:40:22;16.17;;;14.65;;
12072;SDS011;6098;49.004;8.372;2022-08-18T11:13:20;20.09;;;17.94;;
12072;SDS011;6098;49.004;8.372;2022-08-18T11:29:31;18.10;;;16.23;;
12072;SDS011;6098;49.004;8.372;2022-08-18T11:45:58;19.80;;;16.20;;
12072;SDS011;6098;49.004;8.372;2022-08-18T12:02:15;19.81;;;17.48;;
12072;SDS011;6098;49.004;8.372;2022-08-18T12:18:27;17.69;;;15.89;;
12072;SDS011;6098;49.004;8.372;2022-08-18T12:34:47;20.06;;;17.81;;
12072;SDS011;6098;49.004;8.372;2022-08-18T12:51:05;14.30;;;12.88;;
12072;SDS011;6098;49.004;8.372;2022-08-18T13:07:23;16.66;;;15.07;;
12072;SDS011;6098;49.004;8.372;2022-08-18T13:23:42;14.48;;;13.02;;
12072;SDS011;6098;49.004;8.372;2022-08-18T13:40:02;14.98;;;13.36;;
12072;SDS011;6098;49.004;8.372;2022-08-18T13:56:19;14.49;;;13.11;;
12072;SDS011;6098;49.004;8.372;2022-08-18T14:12:36;13.38;;;12.03;;
12072;SDS011;6098;49.004;8.372;2022-08-18T14:28:54;11.53;;;10.49;;
12072;SDS011;6098;49.004;8.372;2022-08-18T14:45:11;12.46;;;11.14;;
12072;SDS011;6098;49.004;8.372;2022-08-18T15:01:28;11.90;;;10.84;;
12072;SDS011;6098;49.004;8.372;2022-08-18T15:17:45;12.08;;;10.78;;
12072;SDS011;6098;49.004;8.372;2022-08-18T15:34:03;12.50;;;11.23;;
12072;SDS011;6098;49.004;8.372;2022-08-18T15:50:22;10.64;;;9.64;;
12072;SDS011;6098;49.004;8.372;2022-08-18T16:06:36;12.24;;;11.01;;
12072;SDS011;6098;49.004;8.372;2022-08-18T16:22:55;12.61;;;11.51;;
12072;SDS011;6098;49.004;8.372;2022-08-18T16:39:10;14.05;;;10.79;;
12072;SDS011;6098;49.004;8.372;2022-08-18T16:55:27;11.30;;;10.21;;
12072;SDS011;6098;49.004;8.372;2022-08-18T17:11:42;11.59;;;10.49;;
12072;SDS011;6098;49.004;8.372;2022-08-18T17:27:59;11.60;;;10.41;;
12072;SDS011;6098;49.004;8.372;2022-08-18T17:44:17;10.40;;;9.41;;
12072;SDS011;6098;49.004;8.372;2022-08-18T18:00:32;9.61;;;8.68;;
12072;SDS011;6098;49.004;8.372;2022-08-18T18:17:12;11.14;;;10.13;;
12072;SDS011;6098;49.004;8.372;2022-08-18T18:33:14;11.21;;;10.21;;
12072;SDS011;6098;49.004;8.372;2022-08-18T18:50:15;12.04;;;10.84;;
12072;SDS011;6098;49.004;8.372;2022-08-18T19:05:39;12.34;;;11.14;;
12072;SDS011;6098;49.004;8.372;2022-08-18T19:22:30;13.71;;;12.34;;
12072;SDS011;6098;49.004;8.372;2022-08-18T19:38:27;12.60;;;11.41;;
12072;SDS011;6098;49.004;8.372;2022-08-18T19:54:43;12.77;;;11.32;;
12072;SDS011;6098;49.004;8.372;2022-08-18T20:27:13;15.94;;;12.93;;
12072;SDS011;6098;49.004;8.372;2022-08-18T20:43:30;17.56;;;13.60;;
12072;SDS011;6098;49.004;8.372;2022-08-18T20:59:51;16.74;;;14.57;;
12072;SDS011;6098;49.004;8.372;2022-08-18T21:16:04;16.61;;;14.07;;
12072;SDS011;6098;49.004;8.372;2022-08-18T21:32:22;15.89;;;13.96;;
12072;SDS011;6098;49.004;8.372;2022-08-18T21:48:45;14.75;;;13.13;;
12072;SDS011;6098;49.004;8.372;2022-08-18T22:05:00;14.98;;;13.48;;
12072;SDS011;6098;49.004;8.372;2022-08-18T22:21:35;14.48;;;12.98;;
12072;SDS011;6098;49.004;8.372;2022-08-18T22:37:51;13.56;;;12.23;;
12072;SDS011;6098;49.004;8.372;2022-08-18T22:54:06;13.85;;;12.55;;
12072;SDS011;6098;49.004;8.372;2022-08-18T23:10:16;13.69;;;12.39;;
12072;SDS011;6098;49.004;8.372;2022-08-18T23:41:46;14.15;;;12.64;;
12072;SDS011;6098;49.004;8.372;2022-08-18T23:56:44;15.00;;;13.50;;
